Time;durP1;ratioP1;P1;durP2;ratioP2;P2;SDS_P1;SDS_P2;PMS_P1;PMS_P2;Temp;Humidity;BMP_temperature;BMP_pressure;BME280_temperature;BME280_humidity;BME280_pressure;Samples;Min_cycle;Max_cycle;Signal;HPM_P1;HPM_P2
2023/02/10 00:02:20;;;;;;;18.88;11.82;;;;;;;1.73;68.29;102659.41;5012646;28;20207;-66
2023/02/10 00:13:58;;;;;;;19.08;12.48;;;;;;;1.33;70.45;102660.31;4994522;28;20255;-67
2023/02/10 00:16:28;;;;;;;26.88;14.25;;;;;;;1.26;70.17;102657.19;5010152;28;20226;-67
2023/02/10 00:18:58;;;;;;;21.73;11.95;;;;;;;1.32;70.45;102655.94;4979076;28;20563;-67
2023/02/10 00:21:33;;;;;;;23.85;13.38;;;;;;;1.28;70.66;102655.28;5011401;28;20677;-67
2023/02/10 00:24:41;;;;;;;19.13;12.20;;;;;;;1.15;70.91;102658.84;4955036;28;20624;-66
2023/02/10 00:27:12;;;;;;;22.58;13.70;;;;;;;1.23;71.23;102657.38;4940629;29;20220;-67
2023/02/10 00:29:44;;;;;;;19.02;12.77;;;;;;;1.24;71.43;102668.91;4954694;28;20706;-67
2023/02/10 00:32:15;;;;;;;21.60;12.77;;;;;;;1.13;71.36;102661.59;4955628;28;20236;-68
2023/02/10 00:34:46;;;;;;;22.75;12.10;;;;;;;0.98;71.68;102657.25;4941290;29;20212;-68
2023/02/10 00:37:16;;;;;;;17.25;12.38;;;;;;;1.15;71.88;102670.38;4976606;28;20219;-67
2023/02/10 00:39:47;;;;;;;27.98;13.18;;;;;;;1.18;71.77;102666.63;4966456;28;20208;-67
2023/02/10 00:42:17;;;;;;;27.08;14.40;;;;;;;1.38;70.90;102670.69;4962906;28;20599;-68
2023/02/10 00:44:49;;;;;;;25.55;14.73;;;;;;;1.60;70.18;102681.66;4959431;28;20196;-66
2023/02/10 00:47:19;;;;;;;22.08;12.63;;;;;;;1.60;70.30;102673.66;4976142;28;20613;-66
2023/02/10 00:49:49;;;;;;;16.13;11.85;;;;;;;1.66;69.64;102678.59;4955577;28;20236;-66
2023/02/10 00:52:19;;;;;;;21.88;13.50;;;;;;;1.72;69.89;102678.19;4976253;28;20366;-68
2023/02/10 00:55:15;;;;;;;22.55;14.05;;;;;;;1.70;69.17;102691.63;4975082;28;20216;-67
2023/02/10 00:57:47;;;;;;;23.45;15.02;;;;;;;1.84;68.93;102693.38;4960558;28;20227;-68
2023/02/10 01:00:21;;;;;;;18.75;13.05;;;;;;;1.76;69.33;102690.38;4954952;28;20206;-67
2023/02/10 01:02:51;;;;;;;22.08;13.25;;;;;;;1.70;69.38;102694.31;4987371;28;20198;-68
2023/02/10 01:05:22;;;;;;;19.58;13.02;;;;;;;1.91;69.63;102692.03;4977906;28;20190;-67
2023/02/10 01:07:52;;;;;;;23.75;12.63;;;;;;;1.96;69.91;102689.03;4992991;28;20270;-68
2023/02/10 01:10:27;;;;;;;18.52;12.07;;;;;;;1.78;70.52;102691.16;4998979;28;20653;-67
2023/02/10 01:13:02;;;;;;;21.98;13.00;;;;;;;1.54;70.55;102692.75;5012754;28;20689;-67
2023/02/10 01:15:34;;;;;;;17.52;11.98;;;;;;;1.18;71.57;102695.97;4995643;28;20616;-67
2023/02/10 01:18:05;;;;;;;20.20;13.20;;;;;;;1.10;72.33;102695.63;5001997;28;20194;-66
2023/02/10 01:20:39;;;;;;;21.27;13.43;;;;;;;0.93;72.96;102695.81;4979553;28;20673;-66
2023/02/10 01:23:11;;;;;;;22.02;13.75;;;;;;;0.93;73.87;102704.66;5012024;28;20205;-67
2023/02/10 01:25:42;;;;;;;19.58;13.65;;;;;;;0.89;74.30;102705.81;5009654;28;20201;-64
2023/02/10 01:28:12;;;;;;;20.73;13.95;;;;;;;0.85;74.22;102698.97;5014397;28;20300;-67
2023/02/10 01:30:44;;;;;;;24.25;12.48;;;;;;;0.87;75.20;102702.41;5009175;28;20205;-67
2023/02/10 01:33:15;;;;;;;23.02;12.55;;;;;;;0.86;75.19;102698.03;5010633;28;20699;-67
2023/02/10 01:35:45;;;;;;;24.88;14.63;;;;;;;0.76;75.53;102691.53;4995826;28;20203;-67
2023/02/10 01:38:15;;;;;;;26.95;14.85;;;;;;;0.72;75.51;102690.88;5009113;28;20209;-67
2023/02/10 01:40:48;;;;;;;22.83;14.35;;;;;;;0.74;75.48;102698.75;5010787;28;20714;-67
2023/02/10 01:43:20;;;;;;;17.50;13.02;;;;;;;0.59;76.97;102697.91;4989935;28;20205;-68
2023/02/10 01:45:51;;;;;;;22.65;13.05;;;;;;;0.60;76.58;102696.94;4976705;28;20218;-67
2023/02/10 01:48:23;;;;;;;27.05;14.38;;;;;;;0.55;76.73;102696.38;4994406;28;20218;-67
2023/02/10 01:50:58;;;;;;;25.50;13.55;;;;;;;0.63;78.41;102687.94;5010330;28;20297;-68
2023/02/10 01:53:30;;;;;;;23.50;14.73;;;;;;;0.60;78.09;102682.78;4994290;28;20194;-68
2023/02/10 01:56:04;;;;;;;26.60;15.50;;;;;;;0.35;78.19;102667.44;5007278;28;20272;-67
2023/02/10 01:58:35;;;;;;;23.08;14.57;;;;;;;0.40;78.45;102676.00;5013327;28;20219;-66
2023/02/10 02:01:08;;;;;;;20.02;14.20;;;;;;;0.39;79.08;102672.47;5015462;28;20191;-67
2023/02/10 02:03:40;;;;;;;26.38;14.05;;;;;;;0.36;78.99;102675.34;5009401;28;20222;-66
2023/02/10 02:06:11;;;;;;;28.08;14.35;;;;;;;0.32;79.71;102673.81;5004685;28;20760;-67
2023/02/10 02:08:41;;;;;;;32.50;14.02;;;;;;;0.44;79.35;102680.19;5011878;28;20672;-67
2023/02/10 02:11:22;;;;;;;27.42;14.35;;;;;;;0.38;79.33;102684.09;5022117;28;20562;-66
2023/02/10 02:14:16;;;;;;;28.80;14.90;;;;;;;0.33;79.83;102686.19;5016704;28;20194;-67
2023/02/10 02:16:59;;;;;;;23.80;13.77;;;;;;;0.28;80.81;102688.25;4976037;28;20764;-68
2023/02/10 02:23:31;;;;;;;27.13;14.80;;;;;;;0.35;81.21;102699.38;5018204;28;20199;-68
2023/02/10 02:26:35;;;;;;;28.48;16.02;;;;;;;0.33;81.05;102712.81;5008255;28;20215;-67
2023/02/10 02:29:31;;;;;;;23.92;15.27;;;;;;;0.46;80.95;102704.94;5008379;28;20234;-68
2023/02/10 02:32:07;;;;;;;36.95;17.38;;;;;;;0.36;81.42;102701.09;5003001;28;20256;-68
2023/02/10 02:34:43;;;;;;;25.50;15.65;;;;;;;0.48;81.71;102707.50;5007847;28;20205;-68
2023/02/10 02:37:18;;;;;;;27.75;17.38;;;;;;;0.51;81.40;102704.66;4975570;28;20714;-68
2023/02/10 02:39:51;;;;;;;25.20;14.63;;;;;;;0.74;80.58;102706.75;5015078;28;20751;-68
2023/02/10 02:42:24;;;;;;;28.27;16.77;;;;;;;0.80;80.90;102701.91;4977802;28;20219;-67
2023/02/10 02:44:57;;;;;;;28.05;15.60;;;;;;;0.96;79.90;102701.81;5008663;28;20625;-67
2023/02/10 02:47:45;;;;;;;24.60;15.50;;;;;;;1.06;80.03;102708.28;5011408;28;20225;-65
2023/02/10 02:50:24;;;;;;;22.60;13.88;;;;;;;1.10;79.31;102698.28;5003944;28;20294;-67
2023/02/10 02:53:08;;;;;;;25.83;14.93;;;;;;;1.14;79.46;102700.66;4999259;28;20220;-67
2023/02/10 02:55:48;;;;;;;38.00;18.45;;;;;;;1.12;78.88;102699.88;4960451;28;20691;-67
2023/02/10 02:58:28;;;;;;;27.52;16.50;;;;;;;0.97;78.56;102689.34;5009091;28;20214;-67
2023/02/10 03:01:04;;;;;;;30.40;16.88;;;;;;;1.02;79.30;102701.41;4997223;28;20202;-68
2023/02/10 03:03:43;;;;;;;23.85;14.77;;;;;;;0.99;79.11;102698.94;5016118;28;20672;-67
2023/02/10 03:06:12;;;;;;;28.95;15.32;;;;;;;0.91;79.82;102700.38;4979993;28;20207;-67
2023/02/10 03:08:42;;;;;;;32.15;18.02;;;;;;;0.85;79.87;102704.28;5003670;28;20190;-68
2023/02/10 03:11:14;;;;;;;23.35;15.93;;;;;;;0.81;80.25;102708.09;4981195;28;20779;-67
2023/02/10 03:13:44;;;;;;;31.85;17.23;;;;;;;0.76;79.88;102712.84;5012676;28;20195;-67
2023/02/10 03:16:14;;;;;;;24.92;14.65;;;;;;;0.92;79.84;102713.59;5015555;28;20629;-66
2023/02/10 03:18:46;;;;;;;26.00;16.17;;;;;;;0.98;79.73;102712.38;5013896;28;20696;-68
2023/02/10 03:21:16;;;;;;;28.50;16.10;;;;;;;1.00;79.66;102714.00;4993366;28;20191;-66
2023/02/10 03:23:46;;;;;;;24.83;15.65;;;;;;;1.07;78.61;102715.31;5008184;28;20665;-67
2023/02/10 03:26:17;;;;;;;23.40;16.20;;;;;;;1.16;78.36;102712.06;5004823;28;20627;-68
2023/02/10 03:28:48;;;;;;;21.48;14.30;;;;;;;1.02;78.64;102714.75;5008515;28;20198;-67
2023/02/10 03:31:18;;;;;;;26.30;16.40;;;;;;;1.10;79.09;102717.81;5026633;28;20203;-67
2023/02/10 03:33:50;;;;;;;24.75;16.98;;;;;;;1.18;79.38;102718.16;4989122;28;20242;-67
2023/02/10 03:36:20;;;;;;;26.48;17.60;;;;;;;1.30;78.83;102709.41;5019504;28;20227;-67
2023/02/10 03:38:50;;;;;;;28.77;18.38;;;;;;;1.41;78.88;102715.81;5017638;28;20199;-66
2023/02/10 03:41:20;;;;;;;27.75;16.40;;;;;;;1.38;79.40;102718.72;5020152;28;20205;-67
2023/02/10 03:43:53;;;;;;;25.15;16.77;;;;;;;1.40;78.48;102716.81;5009046;28;20210;-66
2023/02/10 03:46:23;;;;;;;32.40;17.88;;;;;;;1.43;77.79;102721.94;4980640;28;20222;-68
2023/02/10 03:48:55;;;;;;;28.75;17.65;;;;;;;1.38;78.52;102724.03;5010953;28;20590;-68
2023/02/10 03:51:25;;;;;;;35.17;19.98;;;;;;;1.43;79.16;102735.28;5013509;28;20234;-67
2023/02/10 03:53:55;;;;;;;35.22;19.30;;;;;;;1.48;78.78;102734.03;5017922;28;20206;-66
2023/02/10 03:56:25;;;;;;;27.92;18.67;;;;;;;1.46;79.07;102732.41;5014539;28;20218;-68
2023/02/10 03:58:56;;;;;;;34.75;18.85;;;;;;;1.47;79.35;102731.44;4981292;28;20201;-68
2023/02/10 04:01:26;;;;;;;33.60;20.23;;;;;;;1.43;79.20;102725.47;4999017;28;20234;-68
2023/02/10 04:03:59;;;;;;;30.48;17.98;;;;;;;1.36;79.50;102716.13;5019443;28;20262;-68
2023/02/10 04:06:31;;;;;;;40.53;21.35;;;;;;;1.54;79.35;102724.78;4992795;28;20316;-68
2023/02/10 04:09:01;;;;;;;30.08;18.23;;;;;;;1.55;79.83;102710.50;4987901;28;20193;-68
2023/02/10 04:11:32;;;;;;;33.67;17.10;;;;;;;1.53;80.27;102707.03;5027017;28;20191;-68
2023/02/10 04:14:02;;;;;;;33.60;19.27;;;;;;;1.61;79.56;102704.72;5018197;28;20205;-67
2023/02/10 04:16:33;;;;;;;30.40;18.25;;;;;;;1.55;79.35;102700.63;5032788;28;20214;-69
2023/02/10 04:19:05;;;;;;;36.28;19.92;;;;;;;1.59;80.29;102698.66;5030841;28;20226;-69
2023/02/10 04:21:35;;;;;;;36.78;20.63;;;;;;;1.57;80.37;102713.91;5023210;28;20282;-68
2023/02/10 04:24:07;;;;;;;39.83;19.00;;;;;;;1.54;80.55;102711.44;5020058;28;20202;-67
2023/02/10 04:26:38;;;;;;;36.58;22.02;;;;;;;1.55;80.68;102715.81;5017703;28;20214;-67
2023/02/10 04:29:09;;;;;;;36.60;20.38;;;;;;;1.55;80.42;102710.50;5000677;28;20195;-67
2023/02/10 04:31:39;;;;;;;32.63;18.38;;;;;;;1.46;81.42;102716.38;5017263;28;20245;-67
2023/02/10 04:34:11;;;;;;;37.10;19.17;;;;;;;1.46;81.83;102722.59;5004847;28;20224;-67
2023/02/10 04:36:41;;;;;;;34.90;21.85;;;;;;;1.57;81.67;102736.09;5031495;28;20245;-68
2023/02/10 04:39:12;;;;;;;42.47;21.83;;;;;;;1.66;81.83;102739.97;5014014;28;20218;-67
2023/02/10 04:41:44;;;;;;;39.10;22.45;;;;;;;1.71;81.37;102744.06;4985926;28;20202;-67
2023/02/10 04:44:13;;;;;;;35.60;21.50;;;;;;;1.74;82.03;102732.34;4982467;28;20203;-68
2023/02/10 04:46:44;;;;;;;33.00;19.20;;;;;;;1.73;81.73;102731.50;4983189;28;20242;-66
2023/02/10 04:49:15;;;;;;;40.75;21.73;;;;;;;1.71;81.98;102727.19;5027627;28;20198;-69
2023/02/10 04:51:45;;;;;;;38.00;21.60;;;;;;;1.76;82.37;102730.41;5006685;28;20230;-68
2023/02/10 04:54:16;;;;;;;40.78;23.30;;;;;;;1.65;82.82;102732.91;5002354;28;20206;-69
2023/02/10 04:56:46;;;;;;;50.47;22.88;;;;;;;1.74;83.03;102737.69;5027350;28;20246;-67
2023/02/10 04:59:16;;;;;;;37.90;22.05;;;;;;;1.77;83.01;102732.13;5014259;28;20207;-67
2023/02/10 05:01:48;;;;;;;42.95;25.10;;;;;;;1.68;83.58;102727.41;5000927;28;20195;-67
2023/02/10 05:04:21;;;;;;;36.88;23.55;;;;;;;1.83;83.54;102726.41;5005622;28;20203;-68
2023/02/10 05:06:51;;;;;;;49.85;22.92;;;;;;;1.97;83.71;102729.00;5010147;28;20261;-68
2023/02/10 05:09:21;;;;;;;49.08;23.45;;;;;;;1.81;83.25;102732.78;5016050;28;20225;-65
2023/02/10 05:11:51;;;;;;;40.05;22.75;;;;;;;1.85;83.05;102745.81;5013154;28;20214;-67
2023/02/10 05:14:21;;;;;;;37.35;23.75;;;;;;;1.84;83.52;102744.09;5017473;28;20195;-68
2023/02/10 05:16:51;;;;;;;51.50;24.60;;;;;;;1.82;83.86;102748.72;4976869;28;20297;-67
2023/02/10 05:19:23;;;;;;;40.70;23.90;;;;;;;1.79;83.76;102746.25;5017137;28;20213;-68
2023/02/10 05:21:53;;;;;;;34.90;22.33;;;;;;;1.87;83.86;102746.59;4997326;28;20191;-68
2023/02/10 05:24:23;;;;;;;44.47;21.98;;;;;;;1.79;83.98;102750.72;5014194;28;20584;-67
2023/02/10 05:26:53;;;;;;;39.80;24.70;;;;;;;1.77;83.95;102742.81;5012720;28;20218;-68
2023/02/10 05:29:23;;;;;;;36.97;23.70;;;;;;;1.53;84.94;102741.75;5016086;28;20202;-68
2023/02/10 05:31:53;;;;;;;49.97;26.02;;;;;;;1.31;85.72;102739.56;5013988;28;20230;-67
2023/02/10 05:34:26;;;;;;;40.15;22.17;;;;;;;1.24;87.01;102741.78;4994418;28;20190;-67
2023/02/10 05:36:57;;;;;;;47.72;23.83;;;;;;;1.16;87.95;102745.91;5001879;28;20611;-67
2023/02/10 05:39:27;;;;;;;42.30;22.85;;;;;;;1.14;88.32;102745.13;5015020;28;20209;-67
2023/02/10 05:41:59;;;;;;;42.90;23.35;;;;;;;1.14;88.74;102747.78;4977328;28;20234;-70
2023/02/10 05:44:32;;;;;;;45.85;24.08;;;;;;;1.09;88.94;102745.41;4981670;28;20194;-66
2023/02/10 05:47:04;;;;;;;38.75;22.13;;;;;;;0.95;89.45;102758.75;5018628;28;20218;-68
2023/02/10 05:49:35;;;;;;;49.53;23.95;;;;;;;0.79;89.96;102749.97;5018052;28;20203;-68
2023/02/10 05:52:05;;;;;;;48.22;24.35;;;;;;;0.82;90.44;102744.47;5008916;28;20646;-67
2023/02/10 05:54:36;;;;;;;51.50;27.48;;;;;;;0.84;90.74;102746.06;5009608;28;20278;-68
2023/02/10 05:57:06;;;;;;;48.25;25.88;;;;;;;0.74;91.37;102744.94;4988697;28;20631;-67
2023/02/10 05:59:37;;;;;;;45.58;25.30;;;;;;;0.76;91.76;102739.50;5011736;28;20301;-67
2023/02/10 06:02:07;;;;;;;49.63;23.83;;;;;;;0.64;92.38;102737.59;4978143;28;20233;-66
2023/02/10 06:04:39;;;;;;;52.22;26.05;;;;;;;0.71;92.85;102747.78;5011867;28;20249;-68
2023/02/10 06:07:11;;;;;;;50.80;27.75;;;;;;;0.68;92.95;102755.94;4994195;28;20210;-68
2023/02/10 06:09:42;;;;;;;46.67;26.63;;;;;;;0.67;92.95;102764.06;4976717;28;20253;-67
2023/02/10 06:12:16;;;;;;;46.00;25.85;;;;;;;0.71;93.84;102755.78;5014241;28;20325;-68
2023/02/10 06:14:49;;;;;;;54.80;26.75;;;;;;;0.60;93.67;102757.38;4976258;28;20206;-66
2023/02/10 06:17:20;;;;;;;55.25;29.75;;;;;;;0.71;94.57;102760.25;5010229;28;20564;-66
2023/02/10 06:19:52;;;;;;;51.20;27.38;;;;;;;0.69;94.21;102763.00;5007894;28;20191;-68
2023/02/10 06:22:22;;;;;;;51.97;29.10;;;;;;;0.79;94.85;102768.63;5002407;28;20199;-68
2023/02/10 06:24:52;;;;;;;46.67;27.63;;;;;;;0.75;94.25;102772.44;4989028;28;20190;-67
2023/02/10 06:27:27;;;;;;;53.60;28.42;;;;;;;0.83;94.39;102772.81;4984076;28;20233;-68
2023/02/10 06:29:57;;;;;;;56.40;26.60;;;;;;;0.80;94.49;102781.00;5006280;28;20289;-68
2023/02/10 06:32:27;;;;;;;44.95;26.40;;;;;;;0.83;94.50;102786.16;5008540;28;20548;-68
2023/02/10 06:35:00;;;;;;;53.03;25.15;;;;;;;0.80;94.52;102786.34;4978661;28;20191;-67
2023/02/10 06:37:32;;;;;;;56.28;27.25;;;;;;;0.91;94.63;102783.91;5012861;28;20218;-66
2023/02/10 06:40:02;;;;;;;54.58;26.20;;;;;;;0.90;93.73;102776.84;5013987;28;20626;-68
2023/02/10 06:42:33;;;;;;;53.20;27.80;;;;;;;0.83;94.29;102778.16;5018195;28;20232;-67
2023/02/10 06:45:03;;;;;;;47.35;27.42;;;;;;;0.87;94.35;102785.03;4972561;28;20191;-68
2023/02/10 06:47:34;;;;;;;49.40;26.85;;;;;;;0.88;94.83;102784.91;4993618;28;20396;-66
2023/02/10 06:50:07;;;;;;;44.00;27.95;;;;;;;0.93;94.56;102787.31;5008179;28;20202;-68
2023/02/10 06:52:38;;;;;;;53.97;26.15;;;;;;;1.06;94.53;102792.75;4975759;28;20213;-67
2023/02/10 06:55:09;;;;;;;44.05;27.52;;;;;;;1.07;93.92;102789.97;4975616;28;20195;-70
2023/02/10 06:57:39;;;;;;;47.72;27.00;;;;;;;1.14;94.03;102794.00;4997168;28;20238;-68
2023/02/10 07:00:14;;;;;;;50.83;27.60;;;;;;;1.24;93.37;102802.28;5010505;28;20582;-67
2023/02/10 07:02:44;;;;;;;53.75;28.02;;;;;;;1.29;93.07;102811.72;5010716;28;20202;-68
2023/02/10 07:05:21;;;;;;;59.88;28.10;;;;;;;1.29;93.00;102808.19;5018175;28;20212;-67
2023/02/10 07:07:53;;;;;;;52.60;26.17;;;;;;;1.27;93.01;102807.41;5008615;28;20245;-68
2023/02/10 07:10:24;;;;;;;40.33;23.33;;;;;;;1.41;93.37;102804.72;5009598;28;20636;-69
2023/02/10 07:12:54;;;;;;;45.85;26.20;;;;;;;1.46;92.57;102817.78;5009542;28;20237;-69
2023/02/10 07:15:29;;;;;;;46.83;27.13;;;;;;;1.46;92.82;102807.09;5009308;28;20708;-68
2023/02/10 07:17:59;;;;;;;60.95;26.77;;;;;;;1.49;92.78;102809.59;5008041;28;20282;-68
2023/02/10 07:20:31;;;;;;;54.15;24.60;;;;;;;1.43;92.34;102815.31;4995705;28;20553;-68
2023/02/10 07:23:02;;;;;;;45.65;22.67;;;;;;;1.54;92.57;102810.16;5004895;28;20205;-67
2023/02/10 07:25:32;;;;;;;43.10;25.52;;;;;;;1.62;92.18;102815.88;4992843;28;20618;-68
2023/02/10 07:28:03;;;;;;;44.25;25.45;;;;;;;1.72;91.60;102838.34;4973089;28;20202;-67
2023/02/10 07:30:32;;;;;;;44.70;25.13;;;;;;;1.75;91.93;102835.47;4983726;28;20214;-69
2023/02/10 07:33:03;;;;;;;40.70;23.63;;;;;;;1.97;91.09;102834.97;4975803;28;20213;-66
2023/02/10 07:35:36;;;;;;;42.80;25.27;;;;;;;1.99;90.40;102839.22;4996162;28;20245;-67
2023/02/10 07:38:08;;;;;;;44.30;25.05;;;;;;;1.97;90.41;102830.47;5011095;28;20549;-67
2023/02/10 07:40:39;;;;;;;42.45;24.52;;;;;;;1.96;90.71;102828.75;4995490;28;20273;-68
2023/02/10 07:43:10;;;;;;;56.42;27.25;;;;;;;2.09;90.25;102842.16;5014206;28;20209;-68
2023/02/10 07:45:50;;;;;;;43.08;23.83;;;;;;;2.12;89.74;102842.84;4988910;28;20318;-69
2023/02/10 07:48:21;;;;;;;48.60;26.70;;;;;;;2.00;89.88;102835.63;4989033;28;20211;-69
2023/02/10 07:50:53;;;;;;;46.40;26.23;;;;;;;1.91;90.39;102843.38;5029091;28;20614;-69
2023/02/10 07:53:24;;;;;;;41.40;23.00;;;;;;;2.01;91.14;102841.81;4979811;28;20206;-69
2023/02/10 07:55:54;;;;;;;36.55;24.40;;;;;;;2.09;90.50;102839.50;4979944;28;20554;-69
2023/02/10 07:58:26;;;;;;;37.00;24.85;;;;;;;2.08;90.67;102849.31;5004335;28;20206;-69
2023/02/10 08:00:56;;;;;;;39.30;26.88;;;;;;;2.18;90.22;102853.09;5011935;28;20587;-69
2023/02/10 08:03:26;;;;;;;43.33;24.75;;;;;;;2.26;90.20;102851.75;5011773;28;20294;-69
2023/02/10 08:06:00;;;;;;;47.45;25.05;;;;;;;2.28;89.99;102852.50;4997189;28;20245;-70
2023/02/10 08:08:31;;;;;;;47.45;25.50;;;;;;;2.39;89.71;102853.50;4979444;28;20297;-69
2023/02/10 08:11:04;;;;;;;46.15;25.40;;;;;;;2.46;89.08;102849.50;5011539;28;20225;-70
2023/02/10 08:13:34;;;;;;;40.88;26.30;;;;;;;2.62;88.57;102858.19;4992576;28;20249;-71
2023/02/10 08:16:08;;;;;;;49.05;27.02;;;;;;;2.75;88.50;102852.88;5013648;28;20301;-70
2023/02/10 08:18:38;;;;;;;47.72;24.95;;;;;;;2.87;87.57;102860.06;5020198;28;20210;-70
2023/02/10 08:21:11;;;;;;;29.40;19.95;;;;;;;3.05;86.89;102864.13;5030788;28;20205;-68
2023/02/10 08:23:42;;;;;;;43.70;24.67;;;;;;;3.03;86.21;102876.78;5018244;28;20204;-69
2023/02/10 08:26:14;;;;;;;38.25;22.98;;;;;;;3.12;85.69;102874.41;4980928;28;20284;-69
2023/02/10 08:28:44;;;;;;;46.55;26.33;;;;;;;3.11;85.96;102878.03;5011213;28;20622;-70
2023/02/10 08:31:15;;;;;;;37.45;21.60;;;;;;;3.10;85.45;102877.19;5014806;28;20198;-69
2023/02/10 08:33:47;;;;;;;49.50;25.70;;;;;;;3.13;86.12;102878.81;4997141;28;20274;-68
2023/02/10 08:36:21;;;;;;;42.17;25.35;;;;;;;3.25;86.01;102880.63;5019833;28;20313;-69
2023/02/10 08:38:52;;;;;;;44.40;24.00;;;;;;;3.38;85.11;102885.03;5017917;28;20578;-69
2023/02/10 08:41:23;;;;;;;45.05;24.20;;;;;;;3.20;85.28;102877.41;4984700;28;20586;-69
2023/02/10 08:43:55;;;;;;;52.25;23.15;;;;;;;3.33;85.59;102887.19;4984653;28;20270;-69
2023/02/10 08:46:27;;;;;;;42.20;24.95;;;;;;;3.61;84.51;102882.53;5005691;28;20218;-71
2023/02/10 08:49:00;;;;;;;47.65;26.60;;;;;;;3.74;83.96;102892.28;4987693;28;20209;-70
2023/02/10 08:51:33;;;;;;;45.33;22.38;;;;;;;3.72;83.39;102886.19;4982581;28;20664;-70
2023/02/10 08:54:06;;;;;;;37.53;23.65;;;;;;;3.77;83.24;102883.19;4996872;28;20249;-70
2023/02/10 08:56:36;;;;;;;49.22;24.83;;;;;;;3.73;83.19;102885.19;5011816;28;20221;-69
2023/02/10 08:59:06;;;;;;;43.70;26.83;;;;;;;3.82;83.18;102887.25;5013693;28;20222;-69
2023/02/10 09:01:36;;;;;;;50.30;26.45;;;;;;;3.82;83.00;102887.25;4978293;28;20206;-69
2023/02/10 09:04:07;;;;;;;48.13;25.75;;;;;;;3.79;83.40;102882.09;5017947;28;20253;-70
2023/02/10 09:06:43;;;;;;;37.92;23.30;;;;;;;3.96;82.98;102885.38;5021548;28;20226;-69
2023/02/10 09:09:19;;;;;;;44.58;24.95;;;;;;;3.98;82.21;102886.13;5013182;28;20200;-69
2023/02/10 09:11:49;;;;;;;46.45;24.77;;;;;;;3.81;83.17;102890.03;5010874;28;20575;-69
2023/02/10 09:14:22;;;;;;;41.38;23.80;;;;;;;3.95;83.16;102887.22;4983079;28;20225;-70
2023/02/10 09:16:52;;;;;;;46.38;23.27;;;;;;;4.15;82.18;102886.63;5012669;28;20214;-69
2023/02/10 09:19:23;;;;;;;46.97;26.55;;;;;;;4.13;82.39;102891.22;5017240;28;20213;-70
2023/02/10 09:21:56;;;;;;;44.30;25.80;;;;;;;4.03;82.70;102897.34;4998329;28;20281;-70
2023/02/10 09:24:27;;;;;;;48.05;25.85;;;;;;;3.94;83.13;102905.09;4976845;28;20222;-70
2023/02/10 09:26:58;;;;;;;40.65;24.70;;;;;;;3.84;83.38;102903.19;4994230;28;20210;-69
2023/02/10 09:29:28;;;;;;;43.70;25.50;;;;;;;4.03;83.50;102919.66;5002007;28;20837;-69
2023/02/10 09:31:59;;;;;;;41.95;24.33;;;;;;;4.15;82.43;102909.88;5010443;28;20570;-70
2023/02/10 09:34:31;;;;;;;45.95;27.13;;;;;;;4.49;81.53;102908.25;5023731;28;20237;-70
2023/02/10 09:37:03;;;;;;;48.72;28.20;;;;;;;4.38;81.62;102911.72;5016964;28;20221;-69
2023/02/10 09:39:33;;;;;;;53.67;28.13;;;;;;;4.28;81.85;102911.53;4977565;28;20676;-70
2023/02/10 09:42:12;;;;;;;54.30;26.75;;;;;;;4.38;81.62;102917.09;4977591;28;20205;-71
2023/02/10 09:44:53;;;;;;;48.90;27.27;;;;;;;4.33;82.01;102916.56;5012612;28;20194;-71
2023/02/10 09:47:41;;;;;;;46.00;25.17;;;;;;;4.50;81.67;102913.50;4997290;28;20241;-70
2023/02/10 09:50:45;;;;;;;40.78;22.85;;;;;;;4.69;80.91;102916.53;4991861;28;20194;-70
2023/02/10 09:53:21;;;;;;;49.13;26.75;;;;;;;4.60;80.29;102921.72;5003996;28;20267;-69
2023/02/10 09:55:55;;;;;;;41.15;25.33;;;;;;;4.54;81.09;102919.50;5014759;28;20225;-69
2023/02/10 09:58:32;;;;;;;47.42;28.60;;;;;;;4.66;81.17;102927.47;4999906;28;20204;-69
2023/02/10 10:01:13;;;;;;;45.85;24.73;;;;;;;4.81;80.20;102934.38;4993331;28;20213;-70
2023/02/10 10:03:49;;;;;;;46.63;26.20;;;;;;;4.80;80.53;102939.84;5015548;28;20607;-71
2023/02/10 10:06:24;;;;;;;42.88;24.83;;;;;;;4.88;80.40;102942.84;5008519;28;20257;-70
2023/02/10 10:09:14;;;;;;;45.55;26.42;;;;;;;4.97;80.00;102936.75;4996026;28;20202;-71
2023/02/10 10:11:47;;;;;;;37.38;23.05;;;;;;;4.98;79.45;102941.16;5010943;28;20706;-70
2023/02/10 10:14:20;;;;;;;40.30;22.98;;;;;;;5.03;79.37;102940.81;5010493;28;20209;-70
2023/02/10 10:17:28;;;;;;;45.55;25.90;;;;;;;5.12;79.18;102926.69;5008651;28;20214;-69
2023/02/10 10:20:21;;;;;;;44.45;25.38;;;;;;;4.97;80.12;102935.91;5002994;28;20215;-69
2023/02/10 10:23:02;;;;;;;47.17;23.88;;;;;;;5.22;79.46;102938.44;5005295;28;20202;-69
2023/02/10 10:25:54;;;;;;;40.95;22.67;;;;;;;5.05;79.57;102937.03;5008069;28;20206;-71
2023/02/10 10:28:37;;;;;;;47.00;26.98;;;;;;;5.16;79.59;102937.06;4991532;28;20198;-69
2023/02/10 10:31:17;;;;;;;48.03;23.83;;;;;;;5.35;78.70;102939.19;5004799;28;20286;-69
2023/02/10 10:33:53;;;;;;;38.80;23.73;;;;;;;5.58;77.93;102938.25;5005156;28;20219;-68
2023/02/10 10:36:56;;;;;;;45.90;24.05;;;;;;;5.63;77.35;102930.69;4981391;28;20317;-68
2023/02/10 10:39:32;;;;;;;49.75;26.17;;;;;;;5.43;77.13;102931.38;5013643;28;20201;-68
2023/02/10 10:42:17;;;;;;;49.90;24.23;;;;;;;5.27;78.21;102932.72;4985206;28;20205;-67
2023/02/10 10:44:51;;;;;;;45.42;24.80;;;;;;;5.30;78.96;102929.78;5012266;28;20191;-66
2023/02/10 10:47:37;;;;;;;43.08;23.45;;;;;;;5.50;78.29;102929.94;5010282;28;20317;-70
2023/02/10 10:50:15;;;;;;;41.63;20.90;;;;;;;5.54;77.93;102930.56;4976673;28;20202;-69
2023/02/10 10:52:51;;;;;;;40.83;23.92;;;;;;;5.90;76.70;102922.31;4979722;28;20194;-70
2023/02/10 10:55:27;;;;;;;49.70;24.02;;;;;;;5.91;76.47;102928.53;4994135;28;20202;-70
2023/02/10 10:58:01;;;;;;;41.42;21.45;;;;;;;6.23;75.65;102928.63;4976442;28;20207;-69
2023/02/10 11:00:32;;;;;;;44.70;22.40;;;;;;;6.54;74.44;102920.59;5011220;28;20216;-68
2023/02/10 11:03:18;;;;;;;41.95;22.05;;;;;;;6.17;75.01;102919.22;4996221;28;20215;-69
2023/02/10 11:06:00;;;;;;;41.10;22.25;;;;;;;5.93;76.28;102902.41;4975272;28;20198;-71
2023/02/10 11:08:35;;;;;;;39.88;22.48;;;;;;;5.89;76.52;102900.94;5007406;28;20607;-72
2023/02/10 11:11:09;;;;;;;38.10;23.00;;;;;;;5.99;75.88;102899.22;4976096;28;20202;-67
2023/02/10 11:13:50;;;;;;;40.80;22.77;;;;;;;6.04;76.10;102902.41;4983198;28;20318;-67
2023/02/10 11:16:22;;;;;;;37.40;21.25;;;;;;;6.02;76.35;102898.97;4981875;28;20226;-67
2023/02/10 11:18:55;;;;;;;39.88;22.35;;;;;;;6.10;76.14;102891.13;5014663;28;20298;-69
2023/02/10 11:21:46;;;;;;;39.75;22.15;;;;;;;6.15;76.02;102883.53;4998246;28;20211;-67
2023/02/10 11:24:24;;;;;;;37.65;21.38;;;;;;;6.05;76.00;102893.34;4986331;28;20734;-69
2023/02/10 11:27:05;;;;;;;38.72;21.77;;;;;;;5.97;76.05;102882.34;5016181;28;20606;-68
2023/02/10 11:29:49;;;;;;;41.15;22.20;;;;;;;6.01;76.60;102883.81;4989789;28;20194;-70
2023/02/10 11:32:26;;;;;;;36.53;21.30;;;;;;;6.26;75.71;102878.16;5015804;28;20197;-70
2023/02/10 11:35:03;;;;;;;49.75;24.15;;;;;;;6.36;75.47;102881.78;4990525;28;20194;-69
2023/02/10 11:37:36;;;;;;;38.90;21.60;;;;;;;6.49;74.33;102879.78;5034037;28;20214;-68
2023/02/10 11:40:19;;;;;;;43.97;24.63;;;;;;;6.23;75.00;102889.16;5022259;28;20233;-68
2023/02/10 11:42:52;;;;;;;34.70;24.08;;;;;;;5.89;76.44;102890.19;4995496;28;20206;-70
2023/02/10 11:45:27;;;;;;;43.45;24.27;;;;;;;5.72;77.46;102883.44;4998894;28;20222;-68
2023/02/10 11:48:06;;;;;;;46.10;22.80;;;;;;;5.88;76.80;102881.28;4985988;28;20202;-68
2023/02/10 11:50:38;;;;;;;54.88;24.17;;;;;;;5.99;76.39;102883.09;4991677;28;20205;-69
2023/02/10 11:53:26;;;;;;;39.13;21.42;;;;;;;5.87;77.13;102878.69;5032795;28;20258;-70
2023/02/10 11:56:03;;;;;;;50.17;24.30;;;;;;;5.82;77.43;102880.88;5027571;28;20226;-68
2023/02/10 11:59:03;;;;;;;41.30;23.08;;;;;;;6.02;77.21;102869.41;5003076;28;20206;-69
2023/02/10 12:01:55;;;;;;;47.85;23.25;;;;;;;6.29;75.87;102882.44;5019567;28;20615;-69